Wetterdaten: Woche 08.08.05 - 14.08.05 (KW32)
Datum Zeit Temperatur Luftfeuchte Luftdruck Niederschlag Windrichtung Wind
08.08.2005 00:00 8,5 C 92 % 1016 hPa 0,0 l/m N 0,0 km/h (0 Bft)
08.08.2005 01:00 8,4 C 94 % 1016 hPa 0,0 l/m S-SO 0,6 km/h (0 Bft)
08.08.2005 02:00 8,5 C 96 % 1016 hPa 0,0 l/m S-SW 6,8 km/h (2 Bft)
08.08.2005 03:00 8,7 C 97 % 1016 hPa 0,0 l/m S-SW 6,5 km/h (2 Bft)
08.08.2005 04:00 8,6 C 97 % 1016 hPa 0,0 l/m S 5,0 km/h (1 Bft)
08.08.2005 05:00 8,5 C 96 % 1016 hPa 0,0 l/m S 2,0 km/h (1 Bft)
08.08.2005 06:00 8,6 C 97 % 1016 hPa 0,0 l/m S 2,4 km/h (1 Bft)
08.08.2005 07:00 8,9 C 97 % 1017 hPa 0,0 l/m S 2,2 km/h (1 Bft)
08.08.2005 08:00 9,8 C 94 % 1017 hPa 0,0 l/m S 7,0 km/h (2 Bft)
08.08.2005 09:00 11,7 C 79 % 1017 hPa 0,0 l/m W 7,6 km/h (2 Bft)
08.08.2005 10:00 13,5 C 62 % 1017 hPa 0,0 l/m W-SW 11,8 km/h (2 Bft)
08.08.2005 11:00 15,5 C 51 % 1017 hPa 0,0 l/m W-SW 12,9 km/h (3 Bft)
08.08.2005 12:00 14,6 C 60 % 1018 hPa 0,0 l/m NW 10,1 km/h (2 Bft)
08.08.2005 13:00 15,7 C 52 % 1017 hPa 0,0 l/m W 10,9 km/h (2 Bft)
08.08.2005 14:00 16,6 C 48 % 1017 hPa 0,0 l/m N 9,1 km/h (2 Bft)
08.08.2005 15:00 17,2 C 45 % 1018 hPa 0,0 l/m W 2,3 km/h (1 Bft)
08.08.2005 16:00 17,5 C 46 % 1018 hPa 0,0 l/m W-SW 11,4 km/h (2 Bft)
08.08.2005 17:00 16,7 C 48 % 1017 hPa 0,0 l/m W-SW 11,2 km/h (2 Bft)
08.08.2005 18:00 17,4 C 46 % 1017 hPa 0,0 l/m W-SW 9,5 km/h (2 Bft)
08.08.2005 19:00 16,1 C 50 % 1017 hPa 0,0 l/m W 4,6 km/h (1 Bft)
08.08.2005 20:00 14,3 C 60 % 1018 hPa 0,0 l/m N 0,2 km/h (0 Bft)
08.08.2005 21:00 12,4 C 69 % 1018 hPa 0,0 l/m N 0,0 km/h (0 Bft)
08.08.2005 22:00 11,0 C 75 % 1018 hPa 0,0 l/m N 0,0 km/h (0 Bft)
08.08.2005 23:00 9,5 C 80 % 1018 hPa 0,0 l/m N 0,0 km/h (0 Bft)
09.08.2005 00:00 8,6 C 85 % 1018 hPa 0,0 l/m N 0,0 km/h (0 Bft)
09.08.2005 01:00 8,1 C 87 % 1018 hPa 0,0 l/m N 0,0 km/h (0 Bft)
09.08.2005 02:00 7,4 C 90 % 1018 hPa 0,0 l/m N 0,0 km/h (0 Bft)
09.08.2005 03:00 6,8 C 92 % 1018 hPa 0,0 l/m N 0,0 km/h (0 Bft)
09.08.2005 04:00 6,1 C 93 % 1017 hPa 0,0 l/m N 0,0 km/h (0 Bft)
09.08.2005 05:00 5,5 C 95 % 1017 hPa 0,0 l/m N 0,0 km/h (0 Bft)
09.08.2005 06:00 5,3 C 96 % 1017 hPa 0,0 l/m N 0,0 km/h (0 Bft)
09.08.2005 07:00 6,2 C 98 % 1017 hPa 0,0 l/m N 0,0 km/h (0 Bft)
09.08.2005 08:00 8,6 C 99 % 1017 hPa 0,0 l/m SO 1,0 km/h (0 Bft)
09.08.2005 09:00 12,5 C 87 % 1017 hPa 0,0 l/m S 9,0 km/h (2 Bft)
09.08.2005 10:00 16,2 C 57 % 1017 hPa 0,0 l/m W-SW 6,8 km/h (2 Bft)
09.08.2005 11:00 18,1 C 47 % 1017 hPa 0,0 l/m W 5,4 km/h (1 Bft)
09.08.2005 12:00 19,1 C 41 % 1016 hPa 0,0 l/m W-SW 12,0 km/h (2 Bft)
09.08.2005 13:00 19,5 C 39 % 1016 hPa 0,0 l/m W-SW 8,8 km/h (2 Bft)
09.08.2005 14:00 20,6 C 37 % 1016 hPa 0,0 l/m S-SW 9,1 km/h (2 Bft)
09.08.2005 15:00 20,8 C 38 % 1015 hPa 0,0 l/m W-SW 4,8 km/h (1 Bft)
09.08.2005 16:00 21,7 C 37 % 1015 hPa 0,0 l/m W-SW 8,6 km/h (2 Bft)
09.08.2005 17:00 22,0 C 36 % 1015 hPa 0,0 l/m S 4,6 km/h (1 Bft)
09.08.2005 18:00 21,8 C 37 % 1014 hPa 0,0 l/m W-SW 6,6 km/h (2 Bft)
09.08.2005 19:00 20,1 C 42 % 1014 hPa 0,0 l/m W-SW 6,0 km/h (2 Bft)
09.08.2005 20:00 17,8 C 51 % 1015 hPa 0,0 l/m SW 1,6 km/h (1 Bft)
09.08.2005 21:00 15,4 C 62 % 1015 hPa 0,0 l/m N 0,0 km/h (0 Bft)
09.08.2005 22:00 13,9 C 71 % 1015 hPa 0,0 l/m NW 2,6 km/h (1 Bft)
09.08.2005 23:00 12,7 C 78 % 1015 hPa 0,0 l/m N 0,0 km/h (0 Bft)
10.08.2005 00:00 11,7 C 84 % 1015 hPa 0,0 l/m N 0,0 km/h (0 Bft)
10.08.2005 01:00 11,0 C 86 % 1015 hPa 0,0 l/m N 0,0 km/h (0 Bft)
10.08.2005 02:00 10,3 C 88 % 1015 hPa 0,0 l/m N 0,0 km/h (0 Bft)
10.08.2005 03:00 9,8 C 91 % 1015 hPa 0,0 l/m N 0,0 km/h (0 Bft)
10.08.2005 04:00 9,3 C 92 % 1015 hPa 0,0 l/m N 0,0 km/h (0 Bft)
10.08.2005 05:00 8,5 C 93 % 1015 hPa 0,0 l/m N 0,0 km/h (0 Bft)
10.08.2005 06:00 8,0 C 94 % 1015 hPa 0,0 l/m N 0,0 km/h (0 Bft)
10.08.2005 07:00 8,5 C 96 % 1014 hPa 0,0 l/m N 0,0 km/h (0 Bft)
10.08.2005 08:00 10,7 C 97 % 1014 hPa 0,0 l/m N 0,1 km/h (0 Bft)
10.08.2005 09:00 14,4 C 81 % 1015 hPa 0,0 l/m W 4,5 km/h (1 Bft)
10.08.2005 10:00 17,5 C 45 % 1015 hPa 0,0 l/m W 11,1 km/h (2 Bft)
10.08.2005 11:00 19,7 C 38 % 1014 hPa 0,0 l/m W 13,5 km/h (3 Bft)
10.08.2005 12:00 21,0 C 38 % 1014 hPa 0,0 l/m W 13,1 km/h (3 Bft)
10.08.2005 13:00 22,1 C 36 % 1014 hPa 0,0 l/m W-SW 14,2 km/h (3 Bft)
10.08.2005 14:00 22,6 C 36 % 1014 hPa 0,0 l/m W 17,6 km/h (3 Bft)
10.08.2005 15:00 22,5 C 37 % 1014 hPa 0,0 l/m W 15,5 km/h (3 Bft)
10.08.2005 16:00 21,3 C 40 % 1014 hPa 0,0 l/m W 14,3 km/h (3 Bft)
10.08.2005 17:00 21,4 C 42 % 1014 hPa 0,0 l/m W 11,5 km/h (2 Bft)
10.08.2005 18:00 20,7 C 45 % 1014 hPa 0,0 l/m N-NW 12,1 km/h (2 Bft)
10.08.2005 19:00 19,5 C 49 % 1014 hPa 0,0 l/m N-NW 6,3 km/h (2 Bft)
10.08.2005 20:00 18,1 C 55 % 1015 hPa 0,0 l/m N 3,8 km/h (1 Bft)
10.08.2005 21:00 15,9 C 65 % 1015 hPa 0,0 l/m N 0,0 km/h (0 Bft)
10.08.2005 22:00 14,1 C 73 % 1015 hPa 0,0 l/m N 0,0 km/h (0 Bft)
10.08.2005 23:00 13,6 C 75 % 1015 hPa 0,0 l/m N 0,0 km/h (0 Bft)
11.08.2005 00:00 12,9 C 77 % 1015 hPa 0,0 l/m N 0,0 km/h (0 Bft)
11.08.2005 01:00 12,3 C 84 % 1015 hPa 0,0 l/m N 0,0 km/h (0 Bft)
11.08.2005 02:00 12,2 C 84 % 1015 hPa 0,0 l/m N 0,0 km/h (0 Bft)
11.08.2005 03:00 11,4 C 87 % 1015 hPa 0,0 l/m N 0,0 km/h (0 Bft)
11.08.2005 04:00 11,0 C 89 % 1014 hPa 0,0 l/m N 0,0 km/h (0 Bft)
11.08.2005 05:00 10,1 C 90 % 1014 hPa 0,0 l/m N 0,2 km/h (0 Bft)
11.08.2005 06:00 10,1 C 93 % 1015 hPa 0,0 l/m NW 4,2 km/h (1 Bft)
11.08.2005 07:00 10,9 C 92 % 1015 hPa 0,0 l/m NW 7,9 km/h (2 Bft)
11.08.2005 08:00 12,9 C 87 % 1015 hPa 0,0 l/m O-SO 0,4 km/h (0 Bft)
11.08.2005 09:00 15,5 C 67 % 1015 hPa 0,0 l/m N 6,2 km/h (2 Bft)
11.08.2005 10:00 18,4 C 50 % 1015 hPa 0,0 l/m N 10,6 km/h (2 Bft)
11.08.2005 11:00 20,1 C 44 % 1015 hPa 0,0 l/m N 9,0 km/h (2 Bft)
11.08.2005 12:00 21,0 C 42 % 1015 hPa 0,0 l/m W 8,2 km/h (2 Bft)
11.08.2005 13:00 21,8 C 36 % 1015 hPa 0,0 l/m W 10,1 km/h (2 Bft)
11.08.2005 14:00 22,9 C 34 % 1015 hPa 0,0 l/m N 9,7 km/h (2 Bft)
11.08.2005 15:00 23,7 C 34 % 1014 hPa 0,0 l/m N 11,0 km/h (2 Bft)
11.08.2005 16:00 23,8 C 33 % 1015 hPa 0,0 l/m N 13,9 km/h (3 Bft)
11.08.2005 17:00 23,1 C 34 % 1015 hPa 0,0 l/m N-NW 17,0 km/h (3 Bft)
11.08.2005 18:00 21,5 C 36 % 1015 hPa 0,0 l/m N-NW 16,0 km/h (3 Bft)
11.08.2005 19:00 19,8 C 42 % 1015 hPa 0,0 l/m N 13,5 km/h (3 Bft)
11.08.2005 20:00 17,6 C 50 % 1016 hPa 0,0 l/m N-NW 8,2 km/h (2 Bft)
11.08.2005 21:00 15,8 C 59 % 1016 hPa 0,0 l/m NW 3,7 km/h (1 Bft)
11.08.2005 22:00 14,4 C 69 % 1016 hPa 0,0 l/m N 0,0 km/h (0 Bft)
11.08.2005 23:00 13,4 C 73 % 1017 hPa 0,0 l/m N 0,0 km/h (0 Bft)
12.08.2005 00:00 12,0 C 78 % 1016 hPa 0,0 l/m N 0,0 km/h (0 Bft)
12.08.2005 01:00 11,1 C 82 % 1017 hPa 0,0 l/m N 0,0 km/h (0 Bft)
12.08.2005 02:00 10,4 C 86 % 1017 hPa 0,0 l/m N 0,0 km/h (0 Bft)
12.08.2005 03:00 10,0 C 87 % 1016 hPa 0,0 l/m N 0,0 km/h (0 Bft)
12.08.2005 04:00 9,5 C 90 % 1016 hPa 0,0 l/m N 0,4 km/h (0 Bft)
12.08.2005 05:00 8,7 C 92 % 1016 hPa 0,0 l/m N 0,0 km/h (0 Bft)
12.08.2005 06:00 8,3 C 94 % 1017 hPa 0,0 l/m N 0,0 km/h (0 Bft)
12.08.2005 07:00 9,2 C 96 % 1017 hPa 0,0 l/m N 0,0 km/h (0 Bft)
12.08.2005 08:00 11,1 C 95 % 1017 hPa 0,0 l/m S 0,9 km/h (0 Bft)
12.08.2005 09:00 14,4 C 81 % 1017 hPa 0,0 l/m S 9,4 km/h (2 Bft)
12.08.2005 10:00 18,1 C 64 % 1016 hPa 0,0 l/m S 12,7 km/h (3 Bft)
12.08.2005 11:00 20,7 C 53 % 1016 hPa 0,0 l/m W 8,6 km/h (2 Bft)
12.08.2005 12:00 22,2 C 44 % 1016 hPa 0,0 l/m S-SW 11,2 km/h (2 Bft)
12.08.2005 13:00 23,2 C 40 % 1015 hPa 0,0 l/m SW 14,6 km/h (3 Bft)
12.08.2005 14:00 24,0 C 35 % 1015 hPa 0,0 l/m S-SW 17,2 km/h (3 Bft)
12.08.2005 15:00 24,6 C 33 % 1015 hPa 0,0 l/m S 15,7 km/h (3 Bft)
12.08.2005 16:00 24,7 C 34 % 1014 hPa 0,0 l/m S-SW 15,8 km/h (3 Bft)
12.08.2005 17:00 24,2 C 34 % 1014 hPa 0,0 l/m S-SW 16,0 km/h (3 Bft)
12.08.2005 18:00 23,4 C 35 % 1014 hPa 0,0 l/m S-SW 12,4 km/h (3 Bft)
12.08.2005 19:00 21,7 C 39 % 1014 hPa 0,0 l/m W-SW 8,6 km/h (2 Bft)
12.08.2005 20:00 19,0 C 61 % 1015 hPa 0,0 l/m N 14,2 km/h (3 Bft)
12.08.2005 21:00 17,6 C 71 % 1016 hPa 0,0 l/m NW 1,2 km/h (1 Bft)
12.08.2005 22:00 16,9 C 75 % 1016 hPa 0,0 l/m S 1,3 km/h (1 Bft)
12.08.2005 23:00 16,6 C 80 % 1017 hPa 0,0 l/m S 0,6 km/h (0 Bft)
13.08.2005 00:00 15,9 C 86 % 1017 hPa 0,0 l/m S 0,5 km/h (0 Bft)
13.08.2005 01:00 15,3 C 92 % 1017 hPa 0,0 l/m SW 2,5 km/h (1 Bft)
13.08.2005 02:00 14,9 C 94 % 1017 hPa 1,0 l/m S 4,8 km/h (1 Bft)
13.08.2005 03:00 14,6 C 94 % 1017 hPa 0,0 l/m S 2,2 km/h (1 Bft)
13.08.2005 04:00 14,0 C 95 % 1017 hPa 0,0 l/m S 0,0 km/h (0 Bft)
13.08.2005 05:00 13,4 C 95 % 1017 hPa 0,0 l/m S-SO 0,6 km/h (0 Bft)
13.08.2005 06:00 12,9 C 96 % 1018 hPa 0,0 l/m W-SW 0,8 km/h (0 Bft)
13.08.2005 07:00 13,3 C 98 % 1019 hPa 0,0 l/m S 0,5 km/h (0 Bft)
13.08.2005 08:00 14,5 C 94 % 1019 hPa 0,0 l/m W 6,8 km/h (2 Bft)
13.08.2005 09:00 15,7 C 77 % 1020 hPa 0,0 l/m W 8,1 km/h (2 Bft)
13.08.2005 10:00 17,0 C 67 % 1020 hPa 0,0 l/m W 6,8 km/h (2 Bft)
13.08.2005 11:00 18,6 C 55 % 1020 hPa 0,0 l/m W 10,4 km/h (2 Bft)
13.08.2005 12:00 19,1 C 51 % 1020 hPa 0,0 l/m W 8,3 km/h (2 Bft)
13.08.2005 13:00 19,4 C 49 % 1020 hPa 0,0 l/m W-SW 7,4 km/h (2 Bft)
13.08.2005 14:00 20,4 C 45 % 1020 hPa 0,0 l/m W-SW 7,8 km/h (2 Bft)
13.08.2005 15:00 20,7 C 44 % 1020 hPa 0,0 l/m W 8,0 km/h (2 Bft)
13.08.2005 16:00 20,7 C 44 % 1019 hPa 0,0 l/m W 7,6 km/h (2 Bft)
13.08.2005 17:00 20,9 C 44 % 1019 hPa 0,0 l/m N 6,9 km/h (2 Bft)
13.08.2005 18:00 20,9 C 43 % 1019 hPa 0,0 l/m W-SW 2,0 km/h (1 Bft)
13.08.2005 19:00 19,5 C 52 % 1019 hPa 0,0 l/m N 0,0 km/h (0 Bft)
13.08.2005 20:00 18,0 C 61 % 1019 hPa 0,0 l/m N 0,0 km/h (0 Bft)
13.08.2005 21:00 16,8 C 68 % 1020 hPa 0,0 l/m N 0,0 km/h (0 Bft)
13.08.2005 22:00 16,1 C 71 % 1020 hPa 0,0 l/m N 0,0 km/h (0 Bft)
13.08.2005 23:00 14,9 C 77 % 1020 hPa 0,0 l/m N 0,0 km/h (0 Bft)
14.08.2005 00:00 13,9 C 82 % 1019 hPa 0,0 l/m N 0,0 km/h (0 Bft)
14.08.2005 01:00 13,1 C 85 % 1019 hPa 0,0 l/m N 0,0 km/h (0 Bft)
14.08.2005 02:00 12,2 C 88 % 1019 hPa 0,0 l/m N 0,0 km/h (0 Bft)
14.08.2005 03:00 11,5 C 91 % 1018 hPa 0,0 l/m N 0,0 km/h (0 Bft)
14.08.2005 04:00 11,0 C 94 % 1018 hPa 0,0 l/m N 0,0 km/h (0 Bft)
14.08.2005 05:00 10,7 C 95 % 1017 hPa 0,0 l/m N 0,0 km/h (0 Bft)
14.08.2005 06:00 10,4 C 96 % 1017 hPa 0,0 l/m N 0,0 km/h (0 Bft)
14.08.2005 07:00 11,4 C 98 % 1016 hPa 0,0 l/m S-SO 2,3 km/h (1 Bft)
14.08.2005 08:00 13,5 C 96 % 1016 hPa 0,0 l/m S 13,0 km/h (3 Bft)
14.08.2005 09:00 15,0 C 88 % 1015 hPa 0,0 l/m S 11,4 km/h (2 Bft)
14.08.2005 10:00 17,3 C 67 % 1015 hPa 0,0 l/m S-SW 13,7 km/h (3 Bft)
14.08.2005 11:00 18,0 C 60 % 1015 hPa 0,0 l/m W-SW 12,9 km/h (3 Bft)
14.08.2005 12:00 17,1 C 66 % 1015 hPa 0,0 l/m SW 11,7 km/h (2 Bft)
14.08.2005 13:00 14,8 C 86 % 1016 hPa 2,0 l/m W-SW 15,2 km/h (3 Bft)
14.08.2005 14:00 14,4 C 91 % 1016 hPa 0,0 l/m SW 16,9 km/h (3 Bft)
14.08.2005 15:00 15,0 C 86 % 1016 hPa 0,0 l/m W-SW 16,8 km/h (3 Bft)
14.08.2005 16:00 14,9 C 86 % 1015 hPa 0,0 l/m W-SW 16,3 km/h (3 Bft)
14.08.2005 17:00 15,3 C 80 % 1015 hPa 0,0 l/m SW 14,5 km/h (3 Bft)
14.08.2005 18:00 15,1 C 79 % 1015 hPa 0,0 l/m W-SW 14,5 km/h (3 Bft)
14.08.2005 19:00 14,4 C 85 % 1015 hPa 1,0 l/m W-SW 11,4 km/h (2 Bft)
14.08.2005 20:00 13,1 C 86 % 1016 hPa 2,0 l/m W 12,6 km/h (3 Bft)
14.08.2005 21:00 11,2 C 91 % 1017 hPa 0,0 l/m W-SW 1,5 km/h (1 Bft)
14.08.2005 22:00 10,5 C 94 % 1017 hPa 0,0 l/m W-SW 3,1 km/h (1 Bft)
14.08.2005 23:00 10,8 C 97 % 1017 hPa 0,0 l/m S-SW 5,6 km/h (1 Bft)
Min-Datum _ 09.08.05 11.08.05 12.08.05 - - 08.08.05
_ Min-Zeit 06:00 16:03 17:30 - - 00:00
Minimum _ 5,3 C 32 % 1013 hPa - - 0,0 km/h (0 Bft)
Max-Datum _ 12.08.05 09.08.05 13.08.05 14.08.05 - 14.08.05
_ Max-Zeit 16:20 08:33 09:30 13:11 - 16:12
Maximum _ 24,9 C 100 % 1020 hPa 2,0 l/m - 34,8 km/h
W-SW (5 Bft)
Durchschnitt _ 15,1 C 70 % 1017 hPa #6,0 l/m W-SW 5,7 km/h (1 Bft)

Durchschnitt Minimum Temp.14,5 C
Durchschnitt Maximum Temp.15,7 C